createdAt,value
2023-04-24T00:02:04.569Z,35.10
2023-04-24T00:04:33.081Z,35.20
2023-04-24T00:07:01.807Z,35.10
2023-04-24T00:09:28.796Z,35.20
2023-04-24T00:11:56.036Z,35.00
2023-04-24T00:14:23.081Z,34.50
2023-04-24T00:16:50.169Z,33.20
2023-04-24T00:19:17.625Z,33.30
2023-04-24T00:21:44.914Z,33.80
2023-04-24T00:24:12.115Z,34.40
2023-04-24T00:26:39.207Z,34.60
2023-04-24T00:29:06.263Z,34.80
2023-04-24T00:31:36.118Z,34.10
2023-04-24T00:34:04.197Z,34.00
2023-04-24T00:36:32.037Z,34.30
2023-04-24T00:38:59.506Z,33.20
2023-04-24T00:41:27.001Z,33.80
2023-04-24T00:43:54.682Z,33.90
2023-04-24T00:46:22.807Z,34.20
2023-04-24T00:48:50.309Z,34.10
2023-04-24T00:51:17.371Z,34.50
2023-04-24T00:53:44.454Z,34.60
2023-04-24T00:56:11.861Z,34.70
2023-04-24T00:58:39.977Z,34.80
2023-04-24T01:01:08.381Z,34.10
2023-04-24T01:03:38.510Z,33.00
2023-04-24T01:06:06.908Z,32.70
2023-04-24T01:08:36.028Z,33.20
2023-04-24T01:11:05.217Z,33.60
2023-04-24T01:13:33.448Z,33.30
2023-04-24T01:16:01.597Z,34.00
2023-04-24T01:18:29.436Z,34.40
2023-04-24T01:21:00.991Z,34.60
2023-04-24T01:23:28.263Z,34.50
2023-04-24T01:25:55.454Z,34.00
2023-04-24T01:28:23.374Z,34.40
2023-04-24T01:30:50.720Z,34.40
2023-04-24T01:33:18.393Z,34.20
2023-04-24T01:35:45.759Z,33.90
2023-04-24T01:38:14.323Z,33.70
2023-04-24T01:40:41.419Z,34.00
2023-04-24T01:43:08.755Z,34.00
2023-04-24T01:45:35.862Z,34.40
2023-04-24T01:48:03.055Z,34.60
2023-04-24T01:50:30.225Z,34.30
2023-04-24T01:52:57.338Z,34.00
2023-04-24T01:55:24.330Z,33.90
2023-04-24T01:57:53.289Z,34.20
2023-04-24T02:00:20.439Z,33.70
2023-04-24T02:02:48.490Z,33.30
2023-04-24T02:05:16.309Z,32.60
2023-04-24T02:07:43.348Z,31.70
2023-04-24T02:10:11.004Z,32.10
2023-04-24T02:12:38.212Z,31.60
2023-04-24T02:15:06.329Z,32.50
2023-04-24T02:17:33.371Z,32.40
2023-04-24T02:20:00.708Z,33.00
2023-04-24T02:22:27.793Z,32.90
2023-04-24T02:24:54.769Z,32.90
2023-04-24T02:27:21.791Z,32.60
2023-04-24T02:29:48.963Z,31.80
2023-04-24T02:32:16.806Z,31.50
2023-04-24T02:34:44.049Z,31.00
2023-04-24T02:37:11.242Z,31.00
2023-04-24T02:39:38.226Z,30.60
2023-04-24T02:42:05.725Z,30.50
2023-04-24T02:44:32.735Z,31.00
2023-04-24T02:46:59.682Z,31.30
2023-04-24T02:49:27.180Z,32.10
2023-04-24T02:51:54.251Z,30.20
2023-04-24T02:54:21.234Z,30.50
2023-04-24T02:56:48.227Z,30.90
2023-04-24T02:59:15.294Z,30.70
2023-04-24T03:01:42.501Z,29.90
2023-04-24T03:04:10.227Z,31.00
2023-04-24T03:06:37.269Z,31.90
2023-04-24T03:09:04.781Z,30.70
2023-04-24T03:11:31.860Z,31.30
2023-04-24T03:13:58.845Z,32.00
2023-04-24T03:16:26.543Z,31.10
2023-04-24T03:18:53.573Z,31.60
2023-04-24T03:21:21.068Z,32.10
2023-04-24T03:23:48.043Z,32.90
2023-04-24T03:26:15.137Z,33.40
2023-04-24T03:28:42.285Z,33.60
2023-04-24T03:31:09.383Z,34.20
2023-04-24T03:33:37.282Z,33.90
2023-04-24T03:36:06.103Z,33.30
2023-04-24T03:38:33.296Z,33.60
2023-04-24T03:41:00.469Z,33.70
2023-04-24T03:43:28.459Z,33.00
2023-04-24T03:45:55.689Z,33.50
2023-04-24T03:48:22.801Z,33.40
2023-04-24T03:50:49.809Z,34.10
2023-04-24T03:53:16.809Z,34.40
2023-04-24T03:55:44.386Z,34.40
2023-04-24T03:58:12.270Z,34.00
2023-04-24T04:00:41.386Z,33.60
2023-04-24T04:03:08.858Z,33.70
2023-04-24T04:05:36.000Z,33.50
2023-04-24T04:08:03.154Z,32.60
2023-04-24T04:10:31.542Z,33.00
2023-04-24T04:12:58.570Z,32.50
2023-04-24T04:15:25.539Z,32.80
2023-04-24T04:17:52.770Z,32.30
2023-04-24T04:20:19.976Z,32.60
2023-04-24T04:22:47.023Z,32.80
2023-04-24T04:25:15.347Z,31.80
2023-04-24T04:27:42.976Z,32.40
2023-04-24T04:30:10.975Z,32.60
2023-04-24T04:32:38.443Z,33.00
2023-04-24T04:35:06.253Z,33.10
2023-04-24T04:37:36.728Z,33.90
2023-04-24T04:40:13.641Z,33.10
2023-04-24T04:42:43.697Z,33.40
2023-04-24T04:45:12.554Z,33.50
2023-04-24T04:47:40.868Z,33.80
2023-04-24T04:50:08.327Z,34.00
2023-04-24T04:52:35.274Z,33.60
2023-04-24T04:55:02.714Z,34.30
2023-04-24T04:57:29.859Z,34.00
2023-04-24T04:59:57.022Z,34.60
2023-04-24T05:02:24.107Z,34.50
2023-04-24T05:04:51.364Z,33.30
2023-04-24T05:07:19.647Z,33.40
2023-04-24T05:09:46.690Z,33.60
2023-04-24T05:12:13.695Z,33.20
2023-04-24T05:14:40.802Z,33.10
2023-04-24T05:17:07.986Z,33.70
2023-04-24T05:19:37.114Z,33.50
2023-04-24T05:22:05.612Z,33.20
2023-04-24T05:24:33.976Z,33.40
2023-04-24T05:27:01.286Z,33.00
2023-04-24T05:29:31.811Z,32.90
2023-04-24T05:31:59.304Z,34.20
2023-04-24T05:34:26.343Z,33.80
2023-04-24T05:36:54.227Z,32.80
2023-04-24T05:39:21.606Z,32.90
2023-04-24T05:41:48.871Z,33.50
2023-04-24T05:44:15.841Z,33.30
2023-04-24T05:46:43.160Z,34.60
2023-04-24T05:49:10.229Z,34.60
2023-04-24T05:51:37.260Z,34.90
2023-04-24T05:54:04.802Z,35.60
2023-04-24T05:56:32.482Z,35.80
2023-04-24T05:58:59.453Z,35.90
2023-04-24T06:01:26.514Z,36.10
2023-04-24T06:03:54.566Z,35.70
2023-04-24T06:06:22.007Z,34.80
2023-04-24T06:08:49.013Z,34.50
2023-04-24T06:11:16.368Z,34.60
2023-04-24T06:13:43.442Z,34.60
2023-04-24T06:16:10.719Z,34.80
2023-04-24T06:18:37.795Z,34.50
2023-04-24T06:21:06.488Z,34.80
2023-04-24T06:23:34.085Z,35.70
2023-04-24T06:26:01.287Z,35.90
2023-04-24T06:28:28.343Z,36.50
2023-04-24T06:30:55.704Z,36.50
2023-04-24T06:33:23.899Z,36.90
2023-04-24T06:35:51.290Z,37.10
2023-04-24T06:38:18.403Z,36.60
2023-04-24T06:40:45.647Z,36.10
2023-04-24T06:43:13.233Z,36.70
2023-04-24T06:45:41.037Z,35.90
2023-04-24T06:48:08.277Z,36.70
2023-04-24T06:50:35.418Z,36.90
2023-04-24T06:53:02.551Z,36.60
2023-04-24T06:55:29.890Z,36.30
2023-04-24T06:57:57.045Z,36.50
2023-04-24T07:00:25.531Z,36.20
2023-04-24T07:02:52.907Z,36.40
2023-04-24T07:05:23.207Z,36.20
2023-04-24T07:07:51.630Z,36.60
2023-04-24T07:10:19.300Z,36.10
2023-04-24T07:12:46.602Z,35.40
2023-04-24T07:15:13.688Z,36.10
2023-04-24T07:17:44.679Z,36.50
2023-04-24T07:20:12.751Z,36.30
2023-04-24T07:22:40.184Z,36.90
2023-04-24T07:25:08.009Z,36.70
2023-04-24T07:27:37.366Z,36.50
2023-04-24T07:30:05.537Z,37.30
2023-04-24T07:32:32.638Z,36.90
2023-04-24T07:34:59.702Z,37.20
2023-04-24T07:37:26.859Z,36.50
2023-04-24T07:39:53.904Z,37.00
2023-04-24T07:42:21.038Z,37.60
2023-04-24T07:44:48.832Z,37.80
2023-04-24T07:47:18.848Z,38.30
2023-04-24T07:49:46.136Z,37.90
2023-04-24T07:52:13.170Z,38.70
2023-04-24T07:54:40.313Z,39.00
2023-04-24T07:57:09.317Z,38.60
2023-04-24T07:59:38.551Z,37.70
2023-04-24T08:02:05.620Z,37.50
2023-04-24T08:04:33.078Z,37.90
2023-04-24T08:07:00.385Z,38.10
2023-04-24T08:09:27.721Z,37.00
2023-04-24T08:11:55.112Z,36.80
2023-04-24T08:14:22.285Z,37.50
2023-04-24T08:16:49.270Z,38.70
2023-04-24T08:19:16.329Z,38.40
2023-04-24T08:21:43.487Z,38.40
2023-04-24T08:24:10.431Z,38.60
2023-04-24T08:26:37.663Z,38.80
2023-04-24T08:29:04.760Z,38.30
2023-04-24T08:31:31.904Z,38.20
2023-04-24T08:33:59.054Z,38.50
2023-04-24T08:36:33.150Z,38.70
2023-04-24T08:39:06.982Z,37.80
2023-04-24T08:41:35.749Z,36.90
2023-04-24T08:44:03.734Z,36.00
2023-04-24T08:46:31.878Z,34.60
2023-04-24T08:48:59.507Z,33.80
2023-04-24T08:51:28.846Z,33.90
2023-04-24T08:53:56.285Z,34.20
2023-04-24T08:56:24.543Z,34.80
2023-04-24T08:58:55.923Z,34.40
2023-04-24T09:01:26.193Z,34.20
2023-04-24T09:03:56.588Z,33.50
2023-04-24T09:06:24.397Z,32.80
2023-04-24T09:08:54.054Z,33.00
2023-04-24T09:11:21.226Z,33.70
2023-04-24T09:13:49.794Z,34.80
2023-04-24T09:16:17.029Z,34.00
2023-04-24T09:18:44.094Z,33.80
2023-04-24T09:21:11.738Z,32.30
2023-04-24T09:23:39.700Z,32.60
2023-04-24T09:26:06.927Z,33.30
2023-04-24T09:28:38.094Z,32.50
2023-04-24T09:31:09.335Z,32.60
2023-04-24T09:33:37.512Z,32.70
2023-04-24T09:36:05.614Z,32.80
2023-04-24T09:38:33.910Z,32.90
2023-04-24T09:41:06.578Z,32.20
2023-04-24T09:43:34.408Z,32.10
2023-04-24T09:46:10.764Z,32.30
2023-04-24T09:48:38.874Z,32.20
2023-04-24T09:51:13.128Z,32.50
2023-04-24T09:53:41.210Z,33.30
2023-04-24T09:56:09.597Z,33.20
2023-04-24T09:58:37.764Z,32.80
2023-04-24T10:01:05.159Z,32.00
2023-04-24T10:03:36.346Z,32.30
2023-04-24T10:06:09.940Z,33.40
2023-04-24T10:08:38.880Z,34.60
2023-04-24T10:11:06.016Z,35.20
2023-04-24T10:13:34.022Z,35.60
2023-04-24T10:16:02.179Z,35.00
2023-04-24T10:18:30.981Z,34.70
2023-04-24T10:20:58.653Z,35.10
2023-04-24T10:23:26.998Z,35.10
2023-04-24T10:25:54.920Z,35.50
2023-04-24T10:28:22.904Z,35.00
2023-04-24T10:30:52.009Z,35.60
2023-04-24T10:33:19.699Z,35.40
2023-04-24T10:35:50.230Z,34.90
2023-04-24T10:38:25.971Z,35.00
2023-04-24T10:40:58.513Z,34.50
2023-04-24T10:43:25.614Z,34.80
2023-04-24T10:46:04.714Z,35.30
2023-04-24T10:48:33.583Z,35.50
2023-04-24T10:51:00.916Z,36.00
2023-04-24T10:53:32.071Z,36.90
2023-04-24T10:56:07.947Z,37.40
2023-04-24T10:58:54.877Z,37.40
2023-04-24T11:01:33.445Z,38.40
2023-04-24T11:04:04.041Z,39.90
2023-04-24T11:06:33.428Z,39.90
2023-04-24T11:09:08.509Z,40.20
2023-04-24T11:11:38.031Z,40.30
2023-04-24T11:14:07.923Z,39.90
2023-04-24T11:17:08.481Z,39.40
2023-04-24T11:19:37.712Z,39.40
2023-04-24T11:22:18.090Z,39.80
2023-04-24T11:24:48.353Z,39.50
2023-04-24T11:27:21.466Z,39.20
2023-04-24T11:29:58.789Z,38.90
2023-04-24T11:32:30.448Z,38.70
2023-04-24T11:35:01.695Z,37.90
2023-04-24T11:38:18.748Z,38.30
2023-04-24T11:40:40.076Z,38.10
2023-04-24T11:43:08.479Z,39.20
2023-04-24T11:45:35.951Z,39.60
2023-04-24T11:48:04.834Z,39.90
2023-04-24T11:50:32.037Z,39.40
2023-04-24T11:53:00.183Z,39.80
2023-04-24T11:55:29.749Z,39.90
2023-04-24T11:57:59.301Z,39.30
2023-04-24T12:00:28.106Z,39.90
2023-04-24T12:03:06.933Z,39.30
2023-04-24T12:05:34.675Z,39.80
2023-04-24T12:08:01.697Z,39.30
2023-04-24T12:10:30.638Z,38.30
2023-04-24T12:12:58.970Z,38.10
2023-04-24T12:15:26.920Z,38.50
2023-04-24T12:17:56.200Z,38.70
2023-04-24T12:20:31.908Z,39.50
2023-04-24T12:23:00.802Z,40.30
2023-04-24T12:25:29.649Z,40.90
2023-04-24T12:28:06.119Z,42.00
2023-04-24T12:30:50.023Z,42.60
2023-04-24T12:33:22.016Z,43.40
2023-04-24T12:35:52.642Z,44.10
2023-04-24T12:38:26.004Z,43.30
2023-04-24T12:41:07.447Z,42.90
2023-04-24T12:43:35.570Z,42.10
2023-04-24T12:46:02.985Z,41.80
2023-04-24T12:48:31.298Z,41.00
2023-04-24T12:51:02.482Z,40.20
2023-04-24T12:53:33.195Z,39.70
2023-04-24T12:56:00.283Z,38.60
2023-04-24T12:58:27.426Z,38.50
2023-04-24T13:00:55.934Z,38.60
2023-04-24T13:03:23.853Z,38.20
2023-04-24T13:05:51.530Z,38.60
2023-04-24T13:08:18.521Z,39.20
2023-04-24T13:10:45.666Z,40.00
2023-04-24T13:13:12.697Z,40.10
2023-04-24T13:15:41.223Z,39.90
2023-04-24T13:18:08.421Z,39.40
2023-04-24T13:20:36.759Z,40.80
2023-04-24T13:23:04.566Z,40.20
2023-04-24T13:25:37.391Z,41.20
2023-04-24T13:28:04.482Z,40.50
2023-04-24T13:30:32.106Z,40.90
2023-04-24T13:32:59.150Z,41.20
2023-04-24T13:35:26.214Z,40.80
2023-04-24T13:37:56.504Z,39.60
2023-04-24T13:40:23.562Z,39.30
2023-04-24T13:42:50.748Z,39.50
2023-04-24T13:47:52.129Z,39.40
2023-04-24T13:50:19.786Z,39.90
2023-04-24T13:52:47.110Z,40.30
2023-04-24T13:55:14.317Z,40.20
2023-04-24T13:57:41.826Z,40.30
2023-04-24T14:00:11.629Z,40.30
2023-04-24T14:02:39.144Z,40.50
2023-04-24T14:05:07.681Z,40.20
2023-04-24T14:07:36.233Z,39.10
2023-04-24T14:10:04.913Z,38.60
2023-04-24T14:12:31.969Z,37.80
2023-04-24T14:14:59.020Z,37.70
2023-04-24T14:17:26.202Z,37.70
2023-04-24T14:19:56.914Z,37.50
2023-04-24T14:22:24.253Z,36.80
2023-04-24T14:24:51.286Z,37.60
2023-04-24T14:27:18.392Z,38.00
2023-04-24T14:29:46.369Z,38.10
2023-04-24T14:32:15.998Z,38.30
2023-04-24T14:34:43.262Z,38.50
2023-04-24T14:37:10.451Z,39.00
2023-04-24T14:39:37.784Z,38.60
2023-04-24T14:42:04.992Z,38.90
2023-04-24T14:44:32.047Z,38.90
2023-04-24T14:46:59.984Z,39.50
2023-04-24T14:49:27.541Z,39.60
2023-04-24T14:51:54.506Z,39.60
2023-04-24T14:54:24.196Z,38.90
2023-04-24T14:56:52.249Z,39.50
2023-04-24T14:59:19.350Z,39.40
2023-04-24T15:01:47.873Z,38.20
2023-04-24T15:04:15.323Z,38.70
2023-04-24T15:06:43.019Z,39.20
2023-04-24T15:09:10.158Z,39.60
2023-04-24T15:11:37.638Z,39.70
2023-04-24T15:14:05.167Z,40.10
2023-04-24T15:16:34.363Z,40.30
2023-04-24T15:19:01.859Z,40.10
2023-04-24T15:21:29.473Z,38.30
2023-04-24T15:23:56.493Z,38.80
2023-04-24T15:26:25.010Z,38.40
2023-04-24T15:28:53.018Z,38.80
2023-04-24T15:31:20.822Z,38.70
2023-04-24T15:33:48.702Z,39.20
2023-04-24T15:36:16.583Z,39.50
2023-04-24T15:38:45.159Z,38.70
2023-04-24T15:41:12.993Z,39.20
2023-04-24T15:43:42.413Z,39.40
2023-04-24T15:46:11.181Z,39.40
2023-04-24T15:48:40.061Z,39.40
2023-04-24T15:51:07.271Z,39.00
2023-04-24T15:53:35.505Z,39.00
2023-04-24T15:56:02.692Z,39.10
2023-04-24T15:58:29.967Z,39.10
2023-04-24T16:00:57.862Z,39.30
2023-04-24T16:03:25.039Z,39.20
2023-04-24T16:05:53.563Z,39.30
2023-04-24T16:08:21.813Z,39.10
2023-04-24T16:10:48.988Z,37.20
2023-04-24T16:13:19.280Z,33.80
2023-04-24T16:15:46.689Z,33.10
2023-04-24T16:18:13.882Z,32.20
2023-04-24T16:20:43.228Z,32.00
2023-04-24T16:23:10.822Z,31.70
2023-04-24T16:25:38.012Z,31.60
2023-04-24T16:28:05.095Z,31.80
2023-04-24T16:30:32.254Z,32.50
2023-04-24T16:32:59.776Z,33.20
2023-04-24T16:35:27.004Z,32.80
2023-04-24T16:37:54.016Z,33.10
2023-04-24T16:40:21.309Z,33.40
2023-04-24T16:42:50.446Z,33.30
2023-04-24T16:45:18.104Z,34.20
2023-04-24T16:47:45.268Z,34.20
2023-04-24T16:50:12.605Z,34.80
2023-04-24T16:52:40.124Z,35.10
2023-04-24T16:55:07.735Z,35.90
2023-04-24T16:57:35.938Z,36.40
2023-04-24T17:00:04.166Z,36.50
2023-04-24T17:02:34.067Z,35.80
2023-04-24T17:05:01.342Z,36.30
2023-04-24T17:07:28.490Z,36.70
2023-04-24T17:09:56.158Z,36.90
2023-04-24T17:12:23.410Z,37.50
2023-04-24T17:14:50.487Z,37.80
2023-04-24T17:17:18.579Z,37.80
2023-04-24T17:19:45.785Z,37.90
2023-04-24T17:22:12.854Z,37.40
2023-04-24T17:24:40.147Z,36.90
2023-04-24T17:27:14.536Z,36.40
2023-04-24T17:29:42.808Z,36.20
2023-04-24T17:32:11.709Z,36.70
2023-04-24T17:34:38.750Z,37.20
2023-04-24T17:37:05.869Z,37.60
2023-04-24T17:39:32.907Z,37.90
2023-04-24T17:41:59.990Z,37.30
2023-04-24T17:44:27.106Z,36.60
2023-04-24T17:46:54.245Z,36.10
2023-04-24T17:49:21.293Z,36.70
2023-04-24T17:51:48.255Z,37.00
2023-04-24T17:54:17.758Z,37.10
2023-04-24T17:56:45.434Z,36.80
2023-04-24T17:59:12.487Z,37.20
2023-04-24T18:01:39.636Z,37.10
2023-04-24T18:04:07.048Z,37.40
2023-04-24T18:06:34.264Z,37.40
2023-04-24T18:09:01.334Z,37.50
2023-04-24T18:11:29.358Z,37.80
2023-04-24T18:13:56.604Z,38.20
2023-04-24T18:16:25.681Z,38.10
2023-04-24T18:18:54.007Z,37.90
2023-04-24T18:21:21.260Z,37.80
2023-04-24T18:23:49.642Z,37.40
2023-04-24T18:26:17.253Z,37.60
2023-04-24T18:28:45.232Z,37.80
2023-04-24T18:31:12.393Z,38.00
2023-04-24T18:33:39.427Z,37.90
2023-04-24T18:36:06.540Z,38.00
2023-04-24T18:38:34.009Z,38.10
2023-04-24T18:41:00.974Z,38.20
2023-04-24T18:43:28.436Z,38.20
2023-04-24T18:45:55.471Z,38.20
2023-04-24T18:48:22.488Z,38.30
2023-04-24T18:50:49.708Z,38.20
2023-04-24T18:53:18.358Z,38.20
2023-04-24T18:55:45.639Z,37.80
2023-04-24T18:58:12.769Z,37.90
2023-04-24T19:00:40.781Z,38.00
2023-04-24T19:03:08.958Z,37.90
2023-04-24T19:05:36.210Z,37.90
2023-04-24T19:08:03.220Z,37.90
2023-04-24T19:10:31.086Z,37.70
2023-04-24T19:12:59.196Z,37.50
2023-04-24T19:15:29.762Z,37.50
2023-04-24T19:17:56.969Z,37.50
2023-04-24T19:20:27.033Z,37.60
2023-04-24T19:22:55.035Z,37.50
2023-04-24T19:25:22.005Z,37.50
2023-04-24T19:27:49.158Z,37.50
2023-04-24T19:30:18.503Z,37.40
2023-04-24T19:32:45.548Z,37.30
2023-04-24T19:35:12.724Z,37.40
2023-04-24T19:37:39.858Z,37.50
2023-04-24T19:40:09.145Z,37.40
2023-04-24T19:42:43.726Z,37.50
2023-04-24T19:45:12.648Z,37.50
2023-04-24T19:47:40.497Z,37.50
2023-04-24T19:50:10.200Z,37.30
2023-04-24T19:52:37.355Z,37.10
2023-04-24T19:55:05.059Z,37.00
2023-04-24T19:57:34.541Z,36.80
2023-04-24T20:00:01.523Z,36.60
2023-04-24T20:02:28.698Z,36.50
2023-04-24T20:04:55.953Z,36.50
2023-04-24T20:07:23.154Z,36.70
2023-04-24T20:09:50.195Z,36.50
2023-04-24T20:12:17.224Z,36.40
2023-04-24T20:14:45.389Z,36.50
2023-04-24T20:17:12.525Z,36.50
2023-04-24T20:19:41.126Z,36.50
2023-04-24T20:22:11.319Z,36.50
2023-04-24T20:24:40.045Z,36.20
2023-04-24T20:27:07.995Z,36.40
2023-04-24T20:29:36.698Z,36.40
2023-04-24T20:32:03.693Z,36.00
2023-04-24T20:34:32.053Z,35.30
2023-04-24T20:36:59.349Z,34.90
2023-04-24T20:39:26.914Z,33.90
2023-04-24T20:41:53.973Z,32.90
2023-04-24T20:44:20.965Z,31.80
2023-04-24T20:46:48.007Z,31.70
2023-04-24T20:49:16.598Z,32.50
2023-04-24T20:51:44.828Z,31.30
2023-04-24T20:54:14.097Z,30.30
2023-04-24T20:56:41.130Z,30.10
2023-04-24T20:59:08.145Z,30.40
2023-04-24T21:01:35.134Z,30.70
2023-04-24T21:04:02.373Z,30.80
2023-04-24T21:06:29.983Z,30.80
2023-04-24T21:08:57.054Z,31.30
2023-04-24T21:11:24.161Z,31.60
2023-04-24T21:13:51.667Z,31.90
2023-04-24T21:16:18.917Z,32.50
2023-04-24T21:18:46.033Z,32.40
2023-04-24T21:21:13.347Z,31.70
2023-04-24T21:23:40.379Z,31.10
2023-04-24T21:26:07.906Z,31.60
2023-04-24T21:28:35.073Z,31.60
2023-04-24T21:31:02.046Z,31.40
2023-04-24T21:33:29.473Z,31.70
2023-04-24T21:35:56.936Z,31.80
2023-04-24T21:38:25.223Z,31.60
2023-04-24T21:40:52.702Z,30.90
2023-04-24T21:43:27.667Z,30.70
2023-04-24T21:46:00.809Z,31.40
2023-04-24T21:48:28.039Z,31.30
2023-04-24T21:50:55.002Z,32.00
2023-04-24T21:53:21.960Z,32.20
2023-04-24T21:55:49.013Z,32.30
2023-04-24T21:58:16.282Z,32.70
2023-04-24T22:00:43.351Z,32.70
2023-04-24T22:03:11.206Z,32.20
2023-04-24T22:05:38.422Z,32.10
2023-04-24T22:08:05.667Z,31.70
2023-04-24T22:10:32.889Z,31.60
2023-04-24T22:12:59.946Z,30.20
2023-04-24T22:15:26.986Z,29.70
2023-04-24T22:17:54.581Z,29.50
2023-04-24T22:20:22.737Z,29.30
2023-04-24T22:22:49.728Z,29.30
2023-04-24T22:25:18.403Z,28.20
2023-04-24T22:27:45.548Z,29.40
2023-04-24T22:30:13.067Z,29.40
2023-04-24T22:32:40.088Z,29.40
2023-04-24T22:35:07.994Z,28.80
2023-04-24T22:37:35.086Z,28.90
2023-04-24T22:40:02.239Z,28.60
2023-04-24T22:42:29.867Z,28.90
2023-04-24T22:44:57.109Z,29.60
2023-04-24T22:47:24.080Z,30.00
2023-04-24T22:49:54.097Z,30.60
2023-04-24T22:52:21.829Z,29.70
2023-04-24T22:54:48.775Z,30.10
2023-04-24T22:57:16.150Z,29.70
2023-04-24T22:59:43.770Z,29.60
2023-04-24T23:02:10.915Z,29.40
2023-04-24T23:04:38.020Z,29.20
2023-04-24T23:07:05.194Z,28.90
2023-04-24T23:09:32.293Z,29.80
2023-04-24T23:11:59.402Z,29.90
2023-04-24T23:14:26.776Z,30.10
2023-04-24T23:16:53.898Z,29.70
2023-04-24T23:19:21.315Z,29.10
2023-04-24T23:21:49.407Z,28.80
2023-04-24T23:24:16.524Z,29.00
2023-04-24T23:26:43.559Z,29.60
2023-04-24T23:29:10.525Z,29.00
2023-04-24T23:31:37.560Z,29.70
2023-04-24T23:34:04.682Z,28.70
2023-04-24T23:36:32.327Z,28.20
2023-04-24T23:38:59.462Z,28.90
2023-04-24T23:41:26.914Z,29.50
2023-04-24T23:43:53.902Z,28.90
2023-04-24T23:46:21.385Z,28.70
2023-04-24T23:48:48.894Z,27.90
2023-04-24T23:51:16.230Z,27.60
2023-04-24T23:53:43.511Z,28.40
2023-04-24T23:56:10.645Z,29.00
2023-04-24T23:58:37.665Z,29.50
